sensor_id;sensor_type;location;lat;lon;timestamp;temperature;humidity
42145;DHT22;27813;43.516;11.890;2023-04-03T04:35:03;9.20;76.00
42145;DHT22;27813;43.516;11.890;2023-04-03T04:39:11;9.10;76.30
42145;DHT22;27813;43.516;11.890;2023-04-03T04:43:16;9.00;76.20
42145;DHT22;27813;43.516;11.890;2023-04-03T04:47:23;9.10;76.30
42145;DHT22;27813;43.516;11.890;2023-04-03T04:51:27;9.00;76.20
42145;DHT22;27813;43.516;11.890;2023-04-03T04:55:44;9.10;76.10
42145;DHT22;27813;43.516;11.890;2023-04-03T04:59:48;9.20;75.70
42145;DHT22;27813;43.516;11.890;2023-04-03T05:03:52;9.20;75.40
42145;DHT22;27813;43.516;11.890;2023-04-03T05:08:03;9.20;75.30
42145;DHT22;27813;43.516;11.890;2023-04-03T05:12:07;9.10;75.40
42145;DHT22;27813;43.516;11.890;2023-04-03T05:16:17;9.00;75.80
42145;DHT22;27813;43.516;11.890;2023-04-03T05:20:22;9.00;76.00
42145;DHT22;27813;43.516;11.890;2023-04-03T05:24:26;9.20;75.80
42145;DHT22;27813;43.516;11.890;2023-04-03T05:28:30;9.30;75.50
42145;DHT22;27813;43.516;11.890;2023-04-03T05:32:35;9.40;75.50
42145;DHT22;27813;43.516;11.890;2023-04-03T05:36:59;10.20;74.00
42145;DHT22;27813;43.516;11.890;2023-04-03T05:41:04;10.70;71.50
42145;DHT22;27813;43.516;11.890;2023-04-03T05:45:10;10.50;71.30
42145;DHT22;27813;43.516;11.890;2023-04-03T05:49:14;10.70;71.10
42145;DHT22;27813;43.516;11.890;2023-04-03T05:53:22;10.90;70.40
42145;DHT22;27813;43.516;11.890;2023-04-03T05:57:29;10.90;70.20
42145;DHT22;27813;43.516;11.890;2023-04-03T06:01:34;11.60;69.20
42145;DHT22;27813;43.516;11.890;2023-04-03T06:05:38;12.60;66.60
42145;DHT22;27813;43.516;11.890;2023-04-03T06:09:43;13.60;63.80
42145;DHT22;27813;43.516;11.890;2023-04-03T06:13:47;14.20;62.00
42145;DHT22;27813;43.516;11.890;2023-04-03T06:17:53;14.50;60.10
42145;DHT22;27813;43.516;11.890;2023-04-03T06:21:58;14.90;58.90
42145;DHT22;27813;43.516;11.890;2023-04-03T06:26:02;15.10;58.20
42145;DHT22;27813;43.516;11.890;2023-04-03T06:30:10;15.20;57.10
42145;DHT22;27813;43.516;11.890;2023-04-03T06:34:19;15.50;56.10
42145;DHT22;27813;43.516;11.890;2023-04-03T06:38:25;15.60;55.10
42145;DHT22;27813;43.516;11.890;2023-04-03T06:42:29;15.10;54.90
42145;DHT22;27813;43.516;11.890;2023-04-03T06:46:44;13.70;57.40
42145;DHT22;27813;43.516;11.890;2023-04-03T06:50:49;12.70;60.30
42145;DHT22;27813;43.516;11.890;2023-04-03T06:54:54;12.10;60.90
42145;DHT22;27813;43.516;11.890;2023-04-03T06:59:01;11.70;61.20
42145;DHT22;27813;43.516;11.890;2023-04-03T07:03:07;11.50;61.90
42145;DHT22;27813;43.516;11.890;2023-04-03T07:07:11;11.50;61.60
42145;DHT22;27813;43.516;11.890;2023-04-03T07:11:15;11.40;61.20
42145;DHT22;27813;43.516;11.890;2023-04-03T07:15:19;11.30;60.80
42145;DHT22;27813;43.516;11.890;2023-04-03T07:19:23;11.30;60.70
42145;DHT22;27813;43.516;11.890;2023-04-03T07:23:30;11.30;60.50
42145;DHT22;27813;43.516;11.890;2023-04-03T07:27:35;11.40;60.10
42145;DHT22;27813;43.516;11.890;2023-04-03T07:31:39;11.50;59.70
42145;DHT22;27813;43.516;11.890;2023-04-03T07:35:45;11.50;59.20
42145;DHT22;27813;43.516;11.890;2023-04-03T07:39:49;11.50;58.80
42145;DHT22;27813;43.516;11.890;2023-04-03T07:43:55;11.50;58.70
42145;DHT22;27813;43.516;11.890;2023-04-03T07:48:03;11.50;58.00
42145;DHT22;27813;43.516;11.890;2023-04-03T07:52:16;11.50;58.30
42145;DHT22;27813;43.516;11.890;2023-04-03T07:56:20;11.50;57.80
42145;DHT22;27813;43.516;11.890;2023-04-03T08:00:25;11.60;57.70
42145;DHT22;27813;43.516;11.890;2023-04-03T08:04:29;11.60;58.00
42145;DHT22;27813;43.516;11.890;2023-04-03T08:08:34;11.60;58.10
42145;DHT22;27813;43.516;11.890;2023-04-03T08:12:39;11.70;57.10
42145;DHT22;27813;43.516;11.890;2023-04-03T08:16:44;11.70;57.10
42145;DHT22;27813;43.516;11.890;2023-04-03T08:20:49;11.70;56.70
42145;DHT22;27813;43.516;11.890;2023-04-03T08:24:52;11.70;56.80
42145;DHT22;27813;43.516;11.890;2023-04-03T08:29:02;11.80;55.90
42145;DHT22;27813;43.516;11.890;2023-04-03T08:33:07;11.70;55.30
42145;DHT22;27813;43.516;11.890;2023-04-03T08:37:12;11.70;54.90
42145;DHT22;27813;43.516;11.890;2023-04-03T08:41:20;11.80;54.40
42145;DHT22;27813;43.516;11.890;2023-04-03T08:45:48;11.80;54.30
42145;DHT22;27813;43.516;11.890;2023-04-03T08:54:04;11.80;53.40
42145;DHT22;27813;43.516;11.890;2023-04-03T08:58:30;11.80;53.50
42145;DHT22;27813;43.516;11.890;2023-04-03T09:02:47;11.80;53.20
42145;DHT22;27813;43.516;11.890;2023-04-03T09:06:59;11.90;52.10
42145;DHT22;27813;43.516;11.890;2023-04-03T09:11:21;11.90;51.60
42145;DHT22;27813;43.516;11.890;2023-04-03T09:15:27;12.00;51.50
42145;DHT22;27813;43.516;11.890;2023-04-03T09:20:19;12.00;51.00
42145;DHT22;27813;43.516;11.890;2023-04-03T09:24:25;12.00;50.20
42145;DHT22;27813;43.516;11.890;2023-04-03T09:28:29;12.00;50.00
42145;DHT22;27813;43.516;11.890;2023-04-03T09:32:46;12.00;49.90
42145;DHT22;27813;43.516;11.890;2023-04-03T09:36:52;11.90;49.90
42145;DHT22;27813;43.516;11.890;2023-04-03T09:41:13;12.00;49.80
42145;DHT22;27813;43.516;11.890;2023-04-03T09:45:33;12.00;49.60
42145;DHT22;27813;43.516;11.890;2023-04-03T09:49:37;12.00;49.90
42145;DHT22;27813;43.516;11.890;2023-04-03T09:53:43;12.00;49.80
42145;DHT22;27813;43.516;11.890;2023-04-03T09:57:48;12.00;49.30
42145;DHT22;27813;43.516;11.890;2023-04-03T10:02:28;12.00;49.10
42145;DHT22;27813;43.516;11.890;2023-04-03T10:06:41;12.00;48.80
42145;DHT22;27813;43.516;11.890;2023-04-03T10:11:11;12.00;48.60
42145;DHT22;27813;43.516;11.890;2023-04-03T10:15:17;12.00;48.80
42145;DHT22;27813;43.516;11.890;2023-04-03T10:19:34;12.00;49.10
42145;DHT22;27813;43.516;11.890;2023-04-03T10:23:51;12.20;49.40
42145;DHT22;27813;43.516;11.890;2023-04-03T10:28:16;12.30;48.70
42145;DHT22;27813;43.516;11.890;2023-04-03T10:41:16;12.30;48.00
42145;DHT22;27813;43.516;11.890;2023-04-03T10:50:05;12.20;48.20
42145;DHT22;27813;43.516;11.890;2023-04-03T10:54:25;12.20;48.80
42145;DHT22;27813;43.516;11.890;2023-04-03T10:58:34;12.30;48.50
42145;DHT22;27813;43.516;11.890;2023-04-03T11:02:50;12.30;48.20
42145;DHT22;27813;43.516;11.890;2023-04-03T11:07:03;12.30;48.30
42145;DHT22;27813;43.516;11.890;2023-04-03T11:11:19;12.30;48.40
42145;DHT22;27813;43.516;11.890;2023-04-03T11:15:28;12.30;47.90
42145;DHT22;27813;43.516;11.890;2023-04-03T11:19:41;12.30;47.90
42145;DHT22;27813;43.516;11.890;2023-04-03T11:23:49;12.30;48.10
42145;DHT22;27813;43.516;11.890;2023-04-03T11:27:56;12.20;47.70
42145;DHT22;27813;43.516;11.890;2023-04-03T11:32:41;12.20;47.90
42145;DHT22;27813;43.516;11.890;2023-04-03T11:36:52;12.10;47.50
42145;DHT22;27813;43.516;11.890;2023-04-03T11:40:58;12.00;47.30
42145;DHT22;27813;43.516;11.890;2023-04-03T11:54:35;12.00;47.30
42145;DHT22;27813;43.516;11.890;2023-04-03T12:07:34;11.90;46.20
42145;DHT22;27813;43.516;11.890;2023-04-03T12:11:38;11.80;46.60
42145;DHT22;27813;43.516;11.890;2023-04-03T12:19:49;11.90;47.00
42145;DHT22;27813;43.516;11.890;2023-04-03T12:28:50;12.00;46.80
42145;DHT22;27813;43.516;11.890;2023-04-03T12:33:10;11.90;46.60
42145;DHT22;27813;43.516;11.890;2023-04-03T12:42:25;12.00;46.40
42145;DHT22;27813;43.516;11.890;2023-04-03T12:46:41;11.90;46.50
42145;DHT22;27813;43.516;11.890;2023-04-03T12:50:47;12.00;46.20
42145;DHT22;27813;43.516;11.890;2023-04-03T12:54:53;11.90;46.10
42145;DHT22;27813;43.516;11.890;2023-04-03T12:59:22;11.90;45.80
42145;DHT22;27813;43.516;11.890;2023-04-03T13:03:26;11.90;45.70
42145;DHT22;27813;43.516;11.890;2023-04-03T13:07:36;11.90;45.90
42145;DHT22;27813;43.516;11.890;2023-04-03T13:11:43;12.00;45.60
42145;DHT22;27813;43.516;11.890;2023-04-03T13:15:49;12.00;45.30
42145;DHT22;27813;43.516;11.890;2023-04-03T13:19:55;11.90;45.10
42145;DHT22;27813;43.516;11.890;2023-04-03T13:24:03;11.90;44.90
42145;DHT22;27813;43.516;11.890;2023-04-03T13:28:23;11.90;45.70
42145;DHT22;27813;43.516;11.890;2023-04-03T13:32:29;11.90;45.90
42145;DHT22;27813;43.516;11.890;2023-04-03T13:36:37;11.90;45.70
42145;DHT22;27813;43.516;11.890;2023-04-03T13:40:52;11.80;45.60
42145;DHT22;27813;43.516;11.890;2023-04-03T13:45:11;11.80;45.50
42145;DHT22;27813;43.516;11.890;2023-04-03T13:53:26;11.80;46.10
42145;DHT22;27813;43.516;11.890;2023-04-03T13:57:31;11.90;46.30
42145;DHT22;27813;43.516;11.890;2023-04-03T14:02:14;11.80;45.70
42145;DHT22;27813;43.516;11.890;2023-04-03T14:06:13;11.70;46.20
42145;DHT22;27813;43.516;11.890;2023-04-03T14:10:17;11.70;46.50
42145;DHT22;27813;43.516;11.890;2023-04-03T14:14:33;11.70;46.50
42145;DHT22;27813;43.516;11.890;2023-04-03T14:18:37;11.70;46.70
42145;DHT22;27813;43.516;11.890;2023-04-03T14:22:42;11.70;46.60
42145;DHT22;27813;43.516;11.890;2023-04-03T14:26:49;11.70;46.50
42145;DHT22;27813;43.516;11.890;2023-04-03T14:30:53;11.70;46.60
42145;DHT22;27813;43.516;11.890;2023-04-03T14:34:57;11.60;46.20
42145;DHT22;27813;43.516;11.890;2023-04-03T14:39:03;11.60;45.80
42145;DHT22;27813;43.516;11.890;2023-04-03T14:43:09;11.50;45.60
42145;DHT22;27813;43.516;11.890;2023-04-03T14:47:20;11.50;45.20
42145;DHT22;27813;43.516;11.890;2023-04-03T14:51:34;11.50;45.30
42145;DHT22;27813;43.516;11.890;2023-04-03T14:55:38;11.50;45.30
42145;DHT22;27813;43.516;11.890;2023-04-03T14:59:43;11.40;45.50
42145;DHT22;27813;43.516;11.890;2023-04-03T15:03:48;11.40;45.10
42145;DHT22;27813;43.516;11.890;2023-04-03T15:07:55;11.40;44.60
42145;DHT22;27813;43.516;11.890;2023-04-03T15:11:59;11.40;44.80
42145;DHT22;27813;43.516;11.890;2023-04-03T15:16:20;11.40;45.40
42145;DHT22;27813;43.516;11.890;2023-04-03T15:20:27;11.30;45.60
42145;DHT22;27813;43.516;11.890;2023-04-03T15:24:37;11.20;45.70
42145;DHT22;27813;43.516;11.890;2023-04-03T15:28:42;11.20;46.20
42145;DHT22;27813;43.516;11.890;2023-04-03T15:32:47;11.10;46.30
42145;DHT22;27813;43.516;11.890;2023-04-03T15:36:51;11.10;46.50
42145;DHT22;27813;43.516;11.890;2023-04-03T15:41:00;11.00;46.70
42145;DHT22;27813;43.516;11.890;2023-04-03T15:45:07;11.00;47.30
42145;DHT22;27813;43.516;11.890;2023-04-03T15:49:53;10.90;47.00
42145;DHT22;27813;43.516;11.890;2023-04-03T15:53:58;10.90;47.20
42145;DHT22;27813;43.516;11.890;2023-04-03T15:58:02;10.80;47.50
42145;DHT22;27813;43.516;11.890;2023-04-03T16:02:08;10.70;48.00
42145;DHT22;27813;43.516;11.890;2023-04-03T16:06:15;10.60;48.10
42145;DHT22;27813;43.516;11.890;2023-04-03T16:10:22;10.60;48.20
42145;DHT22;27813;43.516;11.890;2023-04-03T16:14:27;10.50;48.50
42145;DHT22;27813;43.516;11.890;2023-04-03T16:18:32;10.50;48.50
42145;DHT22;27813;43.516;11.890;2023-04-03T16:22:48;10.40;48.60
42145;DHT22;27813;43.516;11.890;2023-04-03T16:26:52;10.40;49.00
42145;DHT22;27813;43.516;11.890;2023-04-03T16:30:57;10.30;49.40
42145;DHT22;27813;43.516;11.890;2023-04-03T16:35:06;10.20;49.70
42145;DHT22;27813;43.516;11.890;2023-04-03T16:39:10;10.10;49.90
42145;DHT22;27813;43.516;11.890;2023-04-03T16:43:15;10.00;50.00
42145;DHT22;27813;43.516;11.890;2023-04-03T16:47:19;9.90;50.20
42145;DHT22;27813;43.516;11.890;2023-04-03T16:51:23;9.90;50.60
42145;DHT22;27813;43.516;11.890;2023-04-03T16:55:27;9.80;50.90
42145;DHT22;27813;43.516;11.890;2023-04-03T16:59:31;9.60;51.30
42145;DHT22;27813;43.516;11.890;2023-04-03T17:03:35;9.50;51.80
42145;DHT22;27813;43.516;11.890;2023-04-03T17:07:39;9.40;52.10
42145;DHT22;27813;43.516;11.890;2023-04-03T17:11:43;9.40;52.20
42145;DHT22;27813;43.516;11.890;2023-04-03T17:15:51;9.30;52.20
42145;DHT22;27813;43.516;11.890;2023-04-03T17:19:55;9.20;52.30
42145;DHT22;27813;43.516;11.890;2023-04-03T17:24:02;9.00;52.60
42145;DHT22;27813;43.516;11.890;2023-04-03T17:28:09;9.00;52.90
42145;DHT22;27813;43.516;11.890;2023-04-03T17:32:18;8.90;53.30
42145;DHT22;27813;43.516;11.890;2023-04-03T17:36:25;8.70;53.50
42145;DHT22;27813;43.516;11.890;2023-04-03T17:40:29;8.50;53.80
42145;DHT22;27813;43.516;11.890;2023-04-03T17:44:35;8.40;54.00
42145;DHT22;27813;43.516;11.890;2023-04-03T17:48:39;8.40;54.20
42145;DHT22;27813;43.516;11.890;2023-04-03T17:52:44;8.20;54.50
42145;DHT22;27813;43.516;11.890;2023-04-03T17:56:50;8.10;54.80
42145;DHT22;27813;43.516;11.890;2023-04-03T18:00:54;7.90;55.20
42145;DHT22;27813;43.516;11.890;2023-04-03T18:04:59;7.80;55.60
42145;DHT22;27813;43.516;11.890;2023-04-03T18:09:07;7.60;56.20
42145;DHT22;27813;43.516;11.890;2023-04-03T18:13:14;7.50;56.80
42145;DHT22;27813;43.516;11.890;2023-04-03T18:17:19;7.50;57.10
42145;DHT22;27813;43.516;11.890;2023-04-03T18:21:25;7.50;57.30
42145;DHT22;27813;43.516;11.890;2023-04-03T18:25:31;7.30;57.60
42145;DHT22;27813;43.516;11.890;2023-04-03T18:29:42;7.20;58.10
42145;DHT22;27813;43.516;11.890;2023-04-03T18:33:47;7.20;58.20
42145;DHT22;27813;43.516;11.890;2023-04-03T18:37:52;7.20;58.50
42145;DHT22;27813;43.516;11.890;2023-04-03T18:41:58;7.30;58.40
42145;DHT22;27813;43.516;11.890;2023-04-03T18:46:03;7.20;58.40
42145;DHT22;27813;43.516;11.890;2023-04-03T18:50:10;7.20;58.60
42145;DHT22;27813;43.516;11.890;2023-04-03T18:54:15;7.20;58.70
42145;DHT22;27813;43.516;11.890;2023-04-03T18:58:22;7.20;58.60
42145;DHT22;27813;43.516;11.890;2023-04-03T19:02:27;7.20;58.90
42145;DHT22;27813;43.516;11.890;2023-04-03T19:06:34;7.10;58.90
42145;DHT22;27813;43.516;11.890;2023-04-03T19:10:43;7.10;59.10
42145;DHT22;27813;43.516;11.890;2023-04-03T19:14:49;6.90;59.30
42145;DHT22;27813;43.516;11.890;2023-04-03T19:18:53;6.80;60.00
42145;DHT22;27813;43.516;11.890;2023-04-03T19:22:57;6.80;60.00
42145;DHT22;27813;43.516;11.890;2023-04-03T19:27:03;6.90;60.00
42145;DHT22;27813;43.516;11.890;2023-04-03T19:31:16;6.80;60.00
42145;DHT22;27813;43.516;11.890;2023-04-03T19:35:20;6.70;60.10
42145;DHT22;27813;43.516;11.890;2023-04-03T19:39:25;6.50;60.40
42145;DHT22;27813;43.516;11.890;2023-04-03T19:43:34;6.50;60.80
42145;DHT22;27813;43.516;11.890;2023-04-03T19:47:38;6.60;60.90
42145;DHT22;27813;43.516;11.890;2023-04-03T19:51:43;6.70;60.50
42145;DHT22;27813;43.516;11.890;2023-04-03T19:55:48;6.80;60.20
42145;DHT22;27813;43.516;11.890;2023-04-03T19:59:52;6.70;60.20
42145;DHT22;27813;43.516;11.890;2023-04-03T20:03:56;6.60;60.30
42145;DHT22;27813;43.516;11.890;2023-04-03T20:08:01;6.60;60.40
42145;DHT22;27813;43.516;11.890;2023-04-03T20:12:07;6.50;60.10
42145;DHT22;27813;43.516;11.890;2023-04-03T20:16:13;6.40;60.10
42145;DHT22;27813;43.516;11.890;2023-04-03T20:20:19;6.50;60.10
42145;DHT22;27813;43.516;11.890;2023-04-03T20:24:23;6.40;59.80
42145;DHT22;27813;43.516;11.890;2023-04-03T20:28:27;6.50;59.40
42145;DHT22;27813;43.516;11.890;2023-04-03T20:32:31;6.50;59.20
42145;DHT22;27813;43.516;11.890;2023-04-03T20:36:36;6.50;59.00
42145;DHT22;27813;43.516;11.890;2023-04-03T20:40:40;6.40;59.00
42145;DHT22;27813;43.516;11.890;2023-04-03T20:45:04;6.40;59.20
42145;DHT22;27813;43.516;11.890;2023-04-03T20:49:11;6.30;59.40
42145;DHT22;27813;43.516;11.890;2023-04-03T20:53:15;6.30;59.30
42145;DHT22;27813;43.516;11.890;2023-04-03T20:57:21;6.30;59.10
42145;DHT22;27813;43.516;11.890;2023-04-03T21:01:26;6.30;58.90
42145;DHT22;27813;43.516;11.890;2023-04-03T21:05:31;6.20;59.10
42145;DHT22;27813;43.516;11.890;2023-04-03T21:19:23;6.00;59.40
42145;DHT22;27813;43.516;11.890;2023-04-03T21:23:27;5.90;59.70
42145;DHT22;27813;43.516;11.890;2023-04-03T21:27:31;6.00;59.60
42145;DHT22;27813;43.516;11.890;2023-04-03T21:32:01;6.10;59.30
42145;DHT22;27813;43.516;11.890;2023-04-03T21:36:09;6.10;59.20
42145;DHT22;27813;43.516;11.890;2023-04-03T21:40:16;6.10;59.20
42145;DHT22;27813;43.516;11.890;2023-04-03T21:44:28;6.00;59.30
42145;DHT22;27813;43.516;11.890;2023-04-03T21:48:35;6.00;59.20
42145;DHT22;27813;43.516;11.890;2023-04-03T21:52:40;5.80;59.50
42145;DHT22;27813;43.516;11.890;2023-04-03T21:56:44;5.80;59.80
42145;DHT22;27813;43.516;11.890;2023-04-03T22:00:50;5.80;59.70
42145;DHT22;27813;43.516;11.890;2023-04-03T22:04:55;5.70;59.70
42145;DHT22;27813;43.516;11.890;2023-04-03T22:09:12;5.70;59.70
42145;DHT22;27813;43.516;11.890;2023-04-03T22:13:16;5.70;59.80
42145;DHT22;27813;43.516;11.890;2023-04-03T22:17:20;5.70;59.90
42145;DHT22;27813;43.516;11.890;2023-04-03T22:21:25;5.70;60.00
42145;DHT22;27813;43.516;11.890;2023-04-03T22:25:29;5.70;60.10
42145;DHT22;27813;43.516;11.890;2023-04-03T22:29:35;5.70;60.10
42145;DHT22;27813;43.516;11.890;2023-04-03T22:33:41;5.70;60.50
42145;DHT22;27813;43.516;11.890;2023-04-03T22:37:46;5.70;60.50
42145;DHT22;27813;43.516;11.890;2023-04-03T22:41:51;5.60;60.50
42145;DHT22;27813;43.516;11.890;2023-04-03T22:45:55;5.60;60.70
42145;DHT22;27813;43.516;11.890;2023-04-03T22:49:59;5.50;60.70
42145;DHT22;27813;43.516;11.890;2023-04-03T22:54:05;5.50;60.90
42145;DHT22;27813;43.516;11.890;2023-04-03T22:58:09;5.50;60.70
42145;DHT22;27813;43.516;11.890;2023-04-03T23:02:38;5.50;60.70
42145;DHT22;27813;43.516;11.890;2023-04-03T23:06:42;5.60;60.70
42145;DHT22;27813;43.516;11.890;2023-04-03T23:10:47;5.60;60.40
42145;DHT22;27813;43.516;11.890;2023-04-03T23:14:53;5.50;60.40
42145;DHT22;27813;43.516;11.890;2023-04-03T23:18:58;5.50;60.30
42145;DHT22;27813;43.516;11.890;2023-04-03T23:23:02;5.60;60.10
42145;DHT22;27813;43.516;11.890;2023-04-03T23:27:06;5.60;59.70
